nws-alerts: Checking more than four warning/county codes can delay the loading of your pages. You should use a cron job to get the data.
EllijayWeather Station Historical Data
Daily Summary for January 23, 2019 Units:  Both    English   Metric
Daily Weekly Monthly Yearly Custom
  High: Low: Average:
Temperature: 52.0 °F /  11.1 °C 38.3 °F /  3.5 °C 46.3 °F /  7.9 °C
Dew Point: 50.2 °F /  10.1 °C 20.7 °F /  -6.3 °C 41.2 °F /  5.1 °C
Humidity: 98% 48% 83%
Wind Speed: 8.9mph /  14.3km/h - 0.6mph /  1km/h
Wind Gust: 12.0mph /  19.3km/h - -
Wind- - SE
Pressure: 30.44 in /  1030.7 hPa 29.75 in /  1007.3 hPa -
Precipitation: 1.35 in /  34.29 mm    
Historical Graphs
 
 
Tabular Data for January 23, 2019
Time Temperature Dew Point Pressure Wind Wind Speed Wind Gust Humidity Rainfall Rate (Hourly) solar
00:04 38.7 °F /  3.7 °C 20.7 °F /  -6.3 °C 30.44in /  1030.7hPa Calm   2.0mph /  3.2km/h 48% 0.00in /  0mm meteobridge W/m2
00:09 38.8 °F /  3.8 °C 20.8 °F /  -6.2 °C 30.44in /  1030.7hPa Calm   6.0mph /  9.7km/h 48% 0.00in /  0mm meteobridge W/m2
00:14 38.8 °F /  3.8 °C 21.4 °F /  -5.9 °C 30.44in /  1030.7hPa Calm   2.0mph /  3.2km/h 49% 0.00in /  0mm meteobridge W/m2
00:19 38.8 °F /  3.8 °C 21.4 °F /  -5.9 °C 30.43in /  1030.4hPa Calm   1.0mph /  1.6km/h 49% 0.00in /  0mm meteobridge W/m2
00:24 38.8 °F /  3.8 °C 21.7 °F /  -5.7 °C 30.43in /  1030.4hPa Calm   5.0mph /  8km/h 50% 0.00in /  0mm meteobridge W/m2
00:29 38.8 °F /  3.8 °C 21.7 °F /  -5.7 °C 30.43in /  1030.4hPa ESE 2.0mph /  3.2km/h 6.0mph /  9.7km/h 50% 0.00in /  0mm meteobridge W/m2
00:34 38.8 °F /  3.8 °C 21.7 °F /  -5.7 °C 30.43in /  1030.4hPa Calm   9.0mph /  14.5km/h 50% 0.00in /  0mm meteobridge W/m2
00:39 38.8 °F /  3.8 °C 21.7 °F /  -5.7 °C 30.43in /  1030.4hPa East 4.0mph /  6.4km/h 4.0mph /  6.4km/h 50% 0.00in /  0mm meteobridge W/m2
00:44 38.7 °F /  3.7 °C 21.6 °F /  -5.8 °C 30.43in /  1030.4hPa Calm   1.0mph /  1.6km/h 50% 0.00in /  0mm meteobridge W/m2
00:49 38.7 °F /  3.7 °C 22.1 °F /  -5.5 °C 30.42in /  1030hPa SE 2.0mph /  3.2km/h 7.0mph /  11.3km/h 51% 0.00in /  0mm meteobridge W/m2
00:54 38.7 °F /  3.7 °C 22.1 °F /  -5.5 °C 30.42in /  1030hPa Calm   7.0mph /  11.3km/h 51% 0.00in /  0mm meteobridge W/m2
00:59 38.7 °F /  3.7 °C 23.0 °F /  -5 °C 30.42in /  1030hPa Calm   1.0mph /  1.6km/h 53% 0.00in /  0mm meteobridge W/m2
01:04 38.7 °F /  3.7 °C 22.6 °F /  -5.2 °C 30.43in /  1030.4hPa Calm   5.0mph /  8km/h 52% 0.00in /  0mm meteobridge W/m2
01:09 38.5 °F /  3.6 °C 22.5 °F /  -5.3 °C 30.42in /  1030hPa Calm   9.0mph /  14.5km/h 52% 0.00in /  0mm meteobridge W/m2
01:14 38.7 °F /  3.7 °C 23.0 °F /  -5 °C 30.42in /  1030hPa Calm   7.0mph /  11.3km/h 53% 0.00in /  0mm meteobridge W/m2
01:19 38.5 °F /  3.6 °C 23.4 °F /  -4.8 °C 30.42in /  1030hPa SE 0.9mph /  1.4km/h 4.0mph /  6.4km/h 54% 0.00in /  0mm meteobridge W/m2
01:24 38.5 °F /  3.6 °C 22.8 °F /  -5.1 °C 30.41in /  1029.7hPa Calm   7.0mph /  11.3km/h 53% 0.00in /  0mm meteobridge W/m2
01:29 38.5 °F /  3.6 °C 22.8 °F /  -5.1 °C 30.41in /  1029.7hPa ESE 0.9mph /  1.4km/h 6.0mph /  9.7km/h 53% 0.00in /  0mm meteobridge W/m2
01:34 38.3 °F /  3.5 °C 22.6 °F /  -5.2 °C 30.42in /  1030hPa Calm   5.0mph /  8km/h 53% 0.00in /  0mm meteobridge W/m2
01:39 38.3 °F /  3.5 °C 22.6 °F /  -5.2 °C 30.41in /  1029.7hPa SE 8.1mph /  13km/h 8.0mph /  12.9km/h 53% 0.00in /  0mm meteobridge W/m2
01:44 38.5 °F /  3.6 °C 23.7 °F /  -4.6 °C 30.40in /  1029.3hPa Calm   6.0mph /  9.7km/h 55% 0.00in /  0mm meteobridge W/m2
01:49 38.5 °F /  3.6 °C 23.7 °F /  -4.6 °C 30.40in /  1029.3hPa Calm   6.0mph /  9.7km/h 55% 0.00in /  0mm meteobridge W/m2
01:54 38.5 °F /  3.6 °C 24.6 °F /  -4.1 °C 30.40in /  1029.3hPa Calm   6.0mph /  9.7km/h 57% 0.00in /  0mm meteobridge W/m2
01:59 38.7 °F /  3.7 °C 24.8 °F /  -4 °C 30.39in /  1029hPa ESE 6.0mph /  9.7km/h 6.0mph /  9.7km/h 57% 0.00in /  0mm meteobridge W/m2
02:04 38.7 °F /  3.7 °C 25.2 °F /  -3.8 °C 30.39in /  1029hPa East 0.9mph /  1.4km/h 7.0mph /  11.3km/h 58% 0.00in /  0mm meteobridge W/m2
02:09 38.7 °F /  3.7 °C 24.8 °F /  -4 °C 30.39in /  1029hPa Calm   8.0mph /  12.9km/h 57% 0.00in /  0mm meteobridge W/m2
02:14 38.8 °F /  3.8 °C 25.3 °F /  -3.7 °C 30.39in /  1029hPa SE 0.9mph /  1.4km/h 4.0mph /  6.4km/h 58% 0.00in /  0mm meteobridge W/m2
02:19 38.8 °F /  3.8 °C 25.7 °F /  -3.5 °C 30.39in /  1029hPa SSE 0.9mph /  1.4km/h 11.0mph /  17.7km/h 59% 0.00in /  0mm meteobridge W/m2
02:24 39.2 °F /  4 °C 27.0 °F /  -2.8 °C 30.38in /  1028.7hPa Calm   11.0mph /  17.7km/h 61% 0.00in /  0mm meteobridge W/m2
02:29 39.4 °F /  4.1 °C 27.5 °F /  -2.5 °C 30.38in /  1028.7hPa ESE 0.9mph /  1.4km/h 4.0mph /  6.4km/h 62% 0.00in /  0mm meteobridge W/m2
02:34 39.6 °F /  4.2 °C 28.8 °F /  -1.8 °C 30.38in /  1028.7hPa Calm   6.0mph /  9.7km/h 65% 0.00in /  0mm meteobridge W/m2
02:39 39.7 °F /  4.3 °C 28.9 °F /  -1.7 °C 30.38in /  1028.7hPa Calm   1.0mph /  1.6km/h 65% 0.00in /  0mm meteobridge W/m2
02:44 39.9 °F /  4.4 °C 29.5 °F /  -1.4 °C 30.38in /  1028.7hPa Calm   4.0mph /  6.4km/h 66% 0.00in /  0mm meteobridge W/m2
02:49 39.9 °F /  4.4 °C 29.8 °F /  -1.2 °C 30.37in /  1028.3hPa Calm   1.0mph /  1.6km/h 67% 0.00in /  0mm meteobridge W/m2
02:54 40.1 °F /  4.5 °C 30.4 °F /  -0.9 °C 30.37in /  1028.3hPa SSE 0.9mph /  1.4km/h 5.0mph /  8km/h 68% 0.00in /  0mm meteobridge W/m2
02:59 40.5 °F /  4.7 °C 31.1 °F /  -0.5 °C 30.37in /  1028.3hPa East 2.0mph /  3.2km/h 6.0mph /  9.7km/h 69% 0.00in /  0mm meteobridge W/m2
03:04 40.5 °F /  4.7 °C 31.1 °F /  -0.5 °C 30.37in /  1028.3hPa Calm   8.0mph /  12.9km/h 69% 0.00in /  0mm meteobridge W/m2
03:09 40.6 °F /  4.8 °C 31.6 °F /  -0.2 °C 30.36in /  1028hPa Calm   4.0mph /  6.4km/h 70% 0.00in /  0mm meteobridge W/m2
03:14 40.8 °F /  4.9 °C 31.8 °F /  -0.1 °C 30.36in /  1028hPa ESE 2.0mph /  3.2km/h 8.0mph /  12.9km/h 70% 0.00in /  0mm meteobridge W/m2
03:19 41.0 °F /  5 °C 32.0 °F /  0 °C 30.36in /  1028hPa Calm   4.0mph /  6.4km/h 70% 0.00in /  0mm meteobridge W/m2
03:24 41.2 °F /  5.1 °C 32.2 °F /  0.1 °C 30.36in /  1028hPa Calm   5.0mph /  8km/h 70% 0.00in /  0mm meteobridge W/m2
03:29 41.4 °F /  5.2 °C 32.4 °F /  0.2 °C 30.36in /  1028hPa Calm   4.0mph /  6.4km/h 70% 0.00in /  0mm meteobridge W/m2
03:34 41.4 °F /  5.2 °C 32.7 °F /  0.4 °C 30.36in /  1028hPa Calm   5.0mph /  8km/h 71% 0.00in /  0mm meteobridge W/m2
03:39 41.4 °F /  5.2 °C 32.7 °F /  0.4 °C 30.36in /  1028hPa SE 0.9mph /  1.4km/h 5.0mph /  8km/h 71% 0.00in /  0mm meteobridge W/m2
03:44 41.4 °F /  5.2 °C 33.1 °F /  0.6 °C 30.35in /  1027.7hPa SE 2.0mph /  3.2km/h 7.0mph /  11.3km/h 72% 0.00in /  0mm meteobridge W/m2
03:49 41.5 °F /  5.3 °C 33.3 °F /  0.7 °C 30.34in /  1027.3hPa ESE 2.0mph /  3.2km/h 12.0mph /  19.3km/h 72% 0.00in /  0mm meteobridge W/m2
03:54 41.7 °F /  5.4 °C 33.4 °F /  0.8 °C 30.34in /  1027.3hPa SE 4.9mph /  7.9km/h 6.0mph /  9.7km/h 72% 0.00in /  0mm meteobridge W/m2
03:59 41.7 °F /  5.4 °C 33.4 °F /  0.8 °C 30.34in /  1027.3hPa SE 0.9mph /  1.4km/h 6.0mph /  9.7km/h 72% 0.00in /  0mm meteobridge W/m2
04:04 41.7 °F /  5.4 °C 33.4 °F /  0.8 °C 30.34in /  1027.3hPa Calm   2.0mph /  3.2km/h 72% 0.00in /  0mm meteobridge W/m2
04:09 41.7 °F /  5.4 °C 33.6 °F /  0.9 °C 30.34in /  1027.3hPa Calm   2.0mph /  3.2km/h 73% 0.00in /  0mm meteobridge W/m2
04:14 41.7 °F /  5.4 °C 33.6 °F /  0.9 °C 30.33in /  1027hPa Calm   4.0mph /  6.4km/h 73% 0.00in /  0mm meteobridge W/m2
04:19 41.7 °F /  5.4 °C 33.6 °F /  0.9 °C 30.34in /  1027.3hPa Calm   5.0mph /  8km/h 73% 0.00in /  0mm meteobridge W/m2
04:24 41.7 °F /  5.4 °C 34.0 °F /  1.1 °C 30.33in /  1027hPa Calm   4.0mph /  6.4km/h 74% 0.00in /  0mm meteobridge W/m2
04:29 41.7 °F /  5.4 °C 34.0 °F /  1.1 °C 30.33in /  1027hPa Calm   4.0mph /  6.4km/h 74% 0.00in /  0mm meteobridge W/m2
04:34 41.7 °F /  5.4 °C 34.0 °F /  1.1 °C 30.32in /  1026.6hPa ESE 0.9mph /  1.4km/h 2.0mph /  3.2km/h 74% 0.00in /  0mm meteobridge W/m2
04:39 41.9 °F /  5.5 °C 34.5 °F /  1.4 °C 30.32in /  1026.6hPa SE 0.9mph /  1.4km/h 1.0mph /  1.6km/h 75% 0.00in /  0mm meteobridge W/m2
04:44 41.9 °F /  5.5 °C 34.5 °F /  1.4 °C 30.32in /  1026.6hPa SE 0.9mph /  1.4km/h 5.0mph /  8km/h 75% 0.00in /  0mm meteobridge W/m2
04:49 41.9 °F /  5.5 °C 34.2 °F /  1.2 °C 30.32in /  1026.6hPa Calm   1.0mph /  1.6km/h 74% 0.00in /  0mm meteobridge W/m2
04:54 41.9 °F /  5.5 °C 34.5 °F /  1.4 °C 30.32in /  1026.6hPa Calm   1.0mph /  1.6km/h 75% 0.00in /  0mm meteobridge W/m2
04:59 41.7 °F /  5.4 °C 34.3 °F /  1.3 °C 30.31in /  1026.3hPa ESE 2.0mph /  3.2km/h 4.0mph /  6.4km/h 75% 0.00in /  0mm meteobridge W/m2
05:04 41.9 °F /  5.5 °C 34.9 °F /  1.6 °C 30.30in /  1026hPa SE 2.0mph /  3.2km/h 4.0mph /  6.4km/h 76% 0.00in /  0mm meteobridge W/m2
05:09 42.1 °F /  5.6 °C 35.1 °F /  1.7 °C 30.30in /  1026hPa SE 0.9mph /  1.4km/h 4.0mph /  6.4km/h 76% 0.00in /  0mm meteobridge W/m2
05:14 42.3 °F /  5.7 °C 35.6 °F /  2 °C 30.30in /  1026hPa Calm   5.0mph /  8km/h 77% 0.00in /  0mm meteobridge W/m2
05:19 42.3 °F /  5.7 °C 35.2 °F /  1.8 °C 30.30in /  1026hPa Calm   4.0mph /  6.4km/h 76% 0.00in /  0mm meteobridge W/m2
05:24 42.1 °F /  5.6 °C 35.1 °F /  1.7 °C 30.29in /  1025.6hPa Calm   4.0mph /  6.4km/h 76% 0.00in /  0mm meteobridge W/m2
05:29 41.9 °F /  5.5 °C 34.9 °F /  1.6 °C 30.28in /  1025.3hPa Calm     76% 0.00in /  0mm meteobridge W/m2
05:34 41.7 °F /  5.4 °C 35.1 °F /  1.7 °C 30.28in /  1025.3hPa Calm   5.0mph /  8km/h 77% 0.00in /  0mm meteobridge W/m2
05:39 42.1 °F /  5.6 °C 36.0 °F /  2.2 °C 30.28in /  1025.3hPa SE 0.9mph /  1.4km/h 2.0mph /  3.2km/h 79% 0.00in /  0mm meteobridge W/m2
05:44 42.3 °F /  5.7 °C 36.0 °F /  2.2 °C 30.28in /  1025.3hPa Calm   4.0mph /  6.4km/h 78% 0.00in /  0mm meteobridge W/m2
05:49 42.3 °F /  5.7 °C 36.0 °F /  2.2 °C 30.29in /  1025.6hPa Calm     78% 0.00in /  0mm meteobridge W/m2
05:54 42.4 °F /  5.8 °C 36.1 °F /  2.3 °C 30.29in /  1025.6hPa Calm   4.0mph /  6.4km/h 78% 0.00in /  0mm meteobridge W/m2
05:59 42.4 °F /  5.8 °C 36.3 °F /  2.4 °C 30.29in /  1025.6hPa SE 2.0mph /  3.2km/h 6.0mph /  9.7km/h 79% 0.00in /  0mm meteobridge W/m2
06:04 42.4 °F /  5.8 °C 36.3 °F /  2.4 °C 30.29in /  1025.6hPa SE 4.0mph /  6.4km/h 4.0mph /  6.4km/h 79% 0.00in /  0mm meteobridge W/m2
06:09 42.4 °F /  5.8 °C 36.3 °F /  2.4 °C 30.29in /  1025.6hPa Calm     79% 0.00in /  0mm meteobridge W/m2
06:14 42.3 °F /  5.7 °C 36.1 °F /  2.3 °C 30.28in /  1025.3hPa ESE 4.9mph /  7.9km/h 5.0mph /  8km/h 79% 0.00in /  0mm meteobridge W/m2
06:18 42.4 °F /  5.8 °C 36.7 °F /  2.6 °C 30.27in /  1024.9hPa Calm   1.0mph /  1.6km/h 80% 0.00in /  0mm meteobridge W/m2
06:24 42.3 °F /  5.7 °C 36.5 °F /  2.5 °C 30.27in /  1024.9hPa Calm   2.0mph /  3.2km/h 80% 0.00in /  0mm meteobridge W/m2
06:29 42.6 °F /  5.9 °C 37.2 °F /  2.9 °C 30.27in /  1024.9hPa Calm   4.0mph /  6.4km/h 81% 0.00in /  0mm meteobridge W/m2
06:34 42.6 °F /  5.9 °C 36.9 °F /  2.7 °C 30.27in /  1024.9hPa SE 2.0mph /  3.2km/h 2.0mph /  3.2km/h 80% 0.00in /  0mm meteobridge W/m2
06:39 42.6 °F /  5.9 °C 37.2 °F /  2.9 °C 30.27in /  1024.9hPa SE 4.0mph /  6.4km/h 7.0mph /  11.3km/h 81% 0.00in /  0mm meteobridge W/m2
06:44 42.6 °F /  5.9 °C 37.2 °F /  2.9 °C 30.27in /  1024.9hPa Calm   4.0mph /  6.4km/h 81% 0.00in /  0mm meteobridge W/m2
06:49 42.6 °F /  5.9 °C 37.2 °F /  2.9 °C 30.27in /  1024.9hPa Calm   2.0mph /  3.2km/h 81% 0.00in /  0mm meteobridge W/m2
06:54 42.4 °F /  5.8 °C 37.4 °F /  3 °C 30.26in /  1024.6hPa ESE 2.0mph /  3.2km/h 2.0mph /  3.2km/h 82% 0.00in /  0mm meteobridge W/m2
06:59 42.8 °F /  6 °C 37.8 °F /  3.2 °C 30.26in /  1024.6hPa Calm   5.0mph /  8km/h 82% 0.00in /  0mm meteobridge W/m2
07:04 43.0 °F /  6.1 °C 38.1 °F /  3.4 °C 30.26in /  1024.6hPa ESE 2.0mph /  3.2km/h 5.0mph /  8km/h 83% 0.00in /  0mm meteobridge W/m2
07:09 43.3 °F /  6.3 °C 38.5 °F /  3.6 °C 30.25in /  1024.3hPa SE 0.9mph /  1.4km/h 6.0mph /  9.7km/h 83% 0.00in /  0mm meteobridge W/m2
07:14 43.3 °F /  6.3 °C 38.5 °F /  3.6 °C 30.25in /  1024.3hPa Calm     83% 0.00in /  0mm meteobridge W/m2
07:19 43.3 °F /  6.3 °C 38.5 °F /  3.6 °C 30.24in /  1023.9hPa Calm   2.0mph /  3.2km/h 83% 0.00in /  0mm meteobridge W/m2
07:24 43.3 °F /  6.3 °C 38.8 °F /  3.8 °C 30.25in /  1024.3hPa SSE 2.0mph /  3.2km/h 4.0mph /  6.4km/h 84% 0.00in /  0mm meteobridge W/m2
07:29 43.3 °F /  6.3 °C 38.8 °F /  3.8 °C 30.24in /  1023.9hPa Calm   6.0mph /  9.7km/h 84% 0.00in /  0mm meteobridge W/m2
07:34 43.3 °F /  6.3 °C 38.8 °F /  3.8 °C 30.24in /  1023.9hPa Calm   4.0mph /  6.4km/h 84% 0.00in /  0mm meteobridge W/m2
07:39 43.2 °F /  6.2 °C 38.7 °F /  3.7 °C 30.23in /  1023.6hPa Calm   6.0mph /  9.7km/h 84% 0.00in /  0mm meteobridge W/m2
07:44 43.2 °F /  6.2 °C 39.0 °F /  3.9 °C 30.23in /  1023.6hPa Calm   4.0mph /  6.4km/h 85% 0.00in /  0mm meteobridge W/m2
07:49 43.2 °F /  6.2 °C 39.0 °F /  3.9 °C 30.24in /  1023.9hPa Calm   4.0mph /  6.4km/h 85% 0.00in /  0mm meteobridge W/m2
07:54 43.0 °F /  6.1 °C 38.8 °F /  3.8 °C 30.24in /  1023.9hPa ESE 2.0mph /  3.2km/h 4.0mph /  6.4km/h 85% 0.00in /  0mm meteobridge W/m2
07:59 43.0 °F /  6.1 °C 38.8 °F /  3.8 °C 30.24in /  1023.9hPa Calm   1.0mph /  1.6km/h 85% 0.00in /  0mm meteobridge W/m2
08:04 43.0 °F /  6.1 °C 39.0 °F /  3.9 °C 30.24in /  1023.9hPa Calm     86% 0.00in /  0mm meteobridge W/m2
08:09 43.0 °F /  6.1 °C 39.0 °F /  3.9 °C 30.24in /  1023.9hPa Calm   8.0mph /  12.9km/h 86% 0.00in /  0mm meteobridge W/m2
08:14 43.2 °F /  6.2 °C 39.2 °F /  4 °C 30.25in /  1024.3hPa Calm   2.0mph /  3.2km/h 86% 0.00in /  0mm meteobridge W/m2
08:19 43.3 °F /  6.3 °C 39.4 °F /  4.1 °C 30.25in /  1024.3hPa Calm   5.0mph /  8km/h 86% 0.00in /  0mm meteobridge W/m2
08:24 43.5 °F /  6.4 °C 39.6 °F /  4.2 °C 30.23in /  1023.6hPa Calm   4.0mph /  6.4km/h 86% 0.00in /  0mm meteobridge W/m2
08:29 43.9 °F /  6.6 °C 39.9 °F /  4.4 °C 30.22in /  1023.2hPa Calm   6.0mph /  9.7km/h 86% 0.00in /  0mm meteobridge W/m2
08:34 44.1 °F /  6.7 °C 40.1 °F /  4.5 °C 30.23in /  1023.6hPa Calm   8.0mph /  12.9km/h 86% 0.00in /  0mm meteobridge W/m2
08:39 44.4 °F /  6.9 °C 40.3 °F /  4.6 °C 30.23in /  1023.6hPa SSE 4.9mph /  7.9km/h 6.0mph /  9.7km/h 85% 0.00in /  0mm meteobridge W/m2
08:44 44.4 °F /  6.9 °C 40.3 °F /  4.6 °C 30.23in /  1023.6hPa ESE 2.0mph /  3.2km/h 7.0mph /  11.3km/h 85% 0.00in /  0mm meteobridge W/m2
08:49 44.4 °F /  6.9 °C 40.3 °F /  4.6 °C 30.23in /  1023.6hPa SE 4.0mph /  6.4km/h 12.0mph /  19.3km/h 85% 0.00in /  0mm meteobridge W/m2
08:54 44.4 °F /  6.9 °C 40.3 °F /  4.6 °C 30.23in /  1023.6hPa ESE 0.9mph /  1.4km/h 2.0mph /  3.2km/h 85% 0.00in /  0mm meteobridge W/m2
08:59 44.4 °F /  6.9 °C 40.3 °F /  4.6 °C 30.23in /  1023.6hPa SE 0.9mph /  1.4km/h 6.0mph /  9.7km/h 85% 0.00in /  0mm meteobridge W/m2
09:04 44.4 °F /  6.9 °C 40.5 °F /  4.7 °C 30.24in /  1023.9hPa Calm   6.0mph /  9.7km/h 86% 0.00in /  0mm meteobridge W/m2
09:09 44.6 °F /  7 °C 40.6 °F /  4.8 °C 30.24in /  1023.9hPa Calm     86% 0.00in /  0mm meteobridge W/m2
09:14 44.8 °F /  7.1 °C 40.8 °F /  4.9 °C 30.24in /  1023.9hPa Calm   2.0mph /  3.2km/h 86% 0.00in /  0mm meteobridge W/m2
09:19 45.0 °F /  7.2 °C 41.0 °F /  5 °C 30.23in /  1023.6hPa Calm   5.0mph /  8km/h 86% 0.00in /  0mm meteobridge W/m2
09:24 45.0 °F /  7.2 °C 41.0 °F /  5 °C 30.23in /  1023.6hPa SE 4.9mph /  7.9km/h 5.0mph /  8km/h 86% 0.00in /  0mm meteobridge W/m2
09:29 45.1 °F /  7.3 °C 41.5 °F /  5.3 °C 30.23in /  1023.6hPa Calm   1.0mph /  1.6km/h 87% 0.00in /  0mm meteobridge W/m2
09:34 45.1 °F /  7.3 °C 41.2 °F /  5.1 °C 30.23in /  1023.6hPa Calm     86% 0.00in /  0mm meteobridge W/m2
09:39 45.1 °F /  7.3 °C 41.2 °F /  5.1 °C 30.23in /  1023.6hPa Calm   5.0mph /  8km/h 86% 0.00in /  0mm meteobridge W/m2
09:44 45.1 °F /  7.3 °C 41.2 °F /  5.1 °C 30.23in /  1023.6hPa Calm   1.0mph /  1.6km/h 86% 0.00in /  0mm meteobridge W/m2
09:49 45.1 °F /  7.3 °C 41.5 °F /  5.3 °C 30.23in /  1023.6hPa Calm   4.0mph /  6.4km/h 87% 0.00in /  0mm meteobridge W/m2
09:54 45.3 °F /  7.4 °C 41.7 °F /  5.4 °C 30.23in /  1023.6hPa Calm   1.0mph /  1.6km/h 87% 0.00in /  0mm meteobridge W/m2
09:59 45.3 °F /  7.4 °C 41.7 °F /  5.4 °C 30.23in /  1023.6hPa Calm     87% 0.00in /  0mm meteobridge W/m2
10:04 45.7 °F /  7.6 °C 42.1 °F /  5.6 °C 30.21in /  1022.9hPa Calm   2.0mph /  3.2km/h 87% 0.00in /  0mm meteobridge W/m2
10:09 45.9 °F /  7.7 °C 42.3 °F /  5.7 °C 30.22in /  1023.2hPa ESE 0.9mph /  1.4km/h 2.0mph /  3.2km/h 87% 0.00in /  0mm meteobridge W/m2
10:14 46.0 °F /  7.8 °C 42.4 °F /  5.8 °C 30.21in /  1022.9hPa Calm   2.0mph /  3.2km/h 87% 0.00in /  0mm meteobridge W/m2
10:19 46.0 °F /  7.8 °C 42.4 °F /  5.8 °C 30.21in /  1022.9hPa Calm   4.0mph /  6.4km/h 87% 0.00in /  0mm meteobridge W/m2
10:24 46.0 °F /  7.8 °C 42.1 °F /  5.6 °C 30.19in /  1022.2hPa Calm   4.0mph /  6.4km/h 86% 0.00in /  0mm meteobridge W/m2
10:29 46.0 °F /  7.8 °C 41.7 °F /  5.4 °C 30.19in /  1022.2hPa Calm   8.0mph /  12.9km/h 85% 0.00in /  0mm meteobridge W/m2
10:34 45.9 °F /  7.7 °C 41.9 °F /  5.5 °C 30.20in /  1022.6hPa ESE 4.0mph /  6.4km/h 6.0mph /  9.7km/h 86% 0.00in /  0mm meteobridge W/m2
10:39 46.0 °F /  7.8 °C 42.1 °F /  5.6 °C 30.20in /  1022.6hPa Calm   1.0mph /  1.6km/h 86% 0.00in /  0mm meteobridge W/m2
10:44 46.0 °F /  7.8 °C 42.1 °F /  5.6 °C 30.20in /  1022.6hPa SE 4.0mph /  6.4km/h 4.0mph /  6.4km/h 86% 0.00in /  0mm meteobridge W/m2
10:49 46.0 °F /  7.8 °C 42.1 °F /  5.6 °C 30.21in /  1022.9hPa Calm   1.0mph /  1.6km/h 86% 0.00in /  0mm meteobridge W/m2
10:54 46.2 °F /  7.9 °C 42.3 °F /  5.7 °C 30.20in /  1022.6hPa Calm     86% 0.00in /  0mm meteobridge W/m2
10:59 46.2 °F /  7.9 °C 42.3 °F /  5.7 °C 30.20in /  1022.6hPa Calm   2.0mph /  3.2km/h 86% 0.00in /  0mm meteobridge W/m2
11:04 46.0 °F /  7.8 °C 42.1 °F /  5.6 °C 30.20in /  1022.6hPa Calm   1.0mph /  1.6km/h 86% 0.00in /  0mm meteobridge W/m2
11:09 46.0 °F /  7.8 °C 42.1 °F /  5.6 °C 30.20in /  1022.6hPa SE 0.9mph /  1.4km/h 4.0mph /  6.4km/h 86% 0.00in /  0mm meteobridge W/m2
11:14 46.0 °F /  7.8 °C 42.1 °F /  5.6 °C 30.19in /  1022.2hPa SE 6.0mph /  9.7km/h 7.0mph /  11.3km/h 86% 0.00in /  0mm meteobridge W/m2
11:19 46.0 °F /  7.8 °C 42.4 °F /  5.8 °C 30.18in /  1021.9hPa Calm   4.0mph /  6.4km/h 87% 0.00in /  0mm meteobridge W/m2
11:24 46.2 °F /  7.9 °C 42.6 °F /  5.9 °C 30.18in /  1021.9hPa Calm   5.0mph /  8km/h 87% 0.00in /  0mm meteobridge W/m2
11:29 46.2 °F /  7.9 °C 42.6 °F /  5.9 °C 30.18in /  1021.9hPa ESE 0.9mph /  1.4km/h 4.0mph /  6.4km/h 87% 0.00in /  0mm meteobridge W/m2
11:34 46.6 °F /  8.1 °C 43.2 °F /  6.2 °C 30.17in /  1021.6hPa ESE 4.0mph /  6.4km/h 4.0mph /  6.4km/h 88% 0.00in /  0mm meteobridge W/m2
11:39 46.9 °F /  8.3 °C 43.3 °F /  6.3 °C 30.17in /  1021.6hPa Calm   4.0mph /  6.4km/h 87% 0.00in /  0mm meteobridge W/m2
11:44 47.1 °F /  8.4 °C 43.5 °F /  6.4 °C 30.15in /  1020.9hPa Calm   4.0mph /  6.4km/h 87% 0.00in /  0mm meteobridge W/m2
11:49 47.3 °F /  8.5 °C 43.7 °F /  6.5 °C 30.14in /  1020.5hPa East 0.9mph /  1.4km/h 6.0mph /  9.7km/h 87% 0.00in /  0mm meteobridge W/m2
11:54 47.5 °F /  8.6 °C 43.9 °F /  6.6 °C 30.14in /  1020.5hPa Calm   4.0mph /  6.4km/h 87% 0.00in /  0mm meteobridge W/m2
11:59 47.7 °F /  8.7 °C 44.1 °F /  6.7 °C 30.13in /  1020.2hPa SSE 0.9mph /  1.4km/h 7.0mph /  11.3km/h 87% 0.00in /  0mm meteobridge W/m2
12:04 48.0 °F /  8.9 °C 43.7 °F /  6.5 °C 30.13in /  1020.2hPa Calm   4.0mph /  6.4km/h 85% 0.00in /  0mm meteobridge W/m2
12:09 47.8 °F /  8.8 °C 43.5 °F /  6.4 °C 30.13in /  1020.2hPa Calm   2.0mph /  3.2km/h 85% 0.00in /  0mm meteobridge W/m2
12:14 47.5 °F /  8.6 °C 43.5 °F /  6.4 °C 30.13in /  1020.2hPa Calm     86% 0.00in /  0mm meteobridge W/m2
12:19 47.1 °F /  8.4 °C 43.5 °F /  6.4 °C 30.13in /  1020.2hPa SE 0.9mph /  1.4km/h 1.0mph /  1.6km/h 87% 0.00in /  0mm meteobridge W/m2
12:24 47.1 °F /  8.4 °C 43.7 °F /  6.5 °C 30.14in /  1020.5hPa Calm   4.0mph /  6.4km/h 88% 0.00in /  0mm meteobridge W/m2
12:29 47.1 °F /  8.4 °C 43.7 °F /  6.5 °C 30.12in /  1019.9hPa Calm   1.0mph /  1.6km/h 88% 0.00in /  0mm meteobridge W/m2
12:34 47.1 °F /  8.4 °C 43.7 °F /  6.5 °C 30.12in /  1019.9hPa Calm   1.0mph /  1.6km/h 88% 0.00in /  0mm meteobridge W/m2
12:39 47.1 °F /  8.4 °C 43.7 °F /  6.5 °C 30.11in /  1019.5hPa Calm   4.0mph /  6.4km/h 88% 0.00in /  0mm meteobridge W/m2
12:44 47.1 °F /  8.4 °C 44.1 °F /  6.7 °C 30.10in /  1019.2hPa Calm     89% 0.00in /  0mm meteobridge W/m2
12:49 47.5 °F /  8.6 °C 44.4 °F /  6.9 °C 30.10in /  1019.2hPa Calm   2.0mph /  3.2km/h 89% 0.00in /  0mm meteobridge W/m2
12:54 47.8 °F /  8.8 °C 44.4 °F /  6.9 °C 30.09in /  1018.8hPa ESE 0.9mph /  1.4km/h 5.0mph /  8km/h 88% 0.00in /  0mm meteobridge W/m2
12:59 48.0 °F /  8.9 °C 44.6 °F /  7 °C 30.09in /  1018.8hPa Calm   2.0mph /  3.2km/h 88% 0.00in /  0mm meteobridge W/m2
13:04 48.0 °F /  8.9 °C 44.6 °F /  7 °C 30.08in /  1018.5hPa Calm   4.0mph /  6.4km/h 88% 0.00in /  0mm meteobridge W/m2
13:09 48.6 °F /  9.2 °C 45.1 °F /  7.3 °C 30.06in /  1017.8hPa SE 2.0mph /  3.2km/h 2.0mph /  3.2km/h 88% 0.00in /  0mm meteobridge W/m2
13:14 49.3 °F /  9.6 °C 45.5 °F /  7.5 °C 30.06in /  1017.8hPa ESE 2.0mph /  3.2km/h 2.0mph /  3.2km/h 87% 0.00in /  0mm meteobridge W/m2
13:19 50.0 °F /  10 °C 46.0 °F /  7.8 °C 30.06in /  1017.8hPa Calm   2.0mph /  3.2km/h 86% 0.00in /  0mm meteobridge W/m2
13:24 50.2 °F /  10.1 °C 45.9 °F /  7.7 °C 30.05in /  1017.5hPa Calm     85% 0.00in /  0mm meteobridge W/m2
13:29 50.4 °F /  10.2 °C 46.0 °F /  7.8 °C 30.04in /  1017.2hPa SE 4.0mph /  6.4km/h 8.0mph /  12.9km/h 85% 0.00in /  0mm meteobridge W/m2
13:34 51.1 °F /  10.6 °C 46.8 °F /  8.2 °C 30.04in /  1017.2hPa ESE 0.9mph /  1.4km/h 8.0mph /  12.9km/h 85% 0.00in /  0mm meteobridge W/m2
13:39 51.4 °F /  10.8 °C 46.8 °F /  8.2 °C 30.03in /  1016.8hPa Calm   5.0mph /  8km/h 84% 0.00in /  0mm meteobridge W/m2
13:44 51.8 °F /  11 °C 46.8 °F /  8.2 °C 30.03in /  1016.8hPa Calm   4.0mph /  6.4km/h 83% 0.00in /  0mm meteobridge W/m2
13:49 52.0 °F /  11.1 °C 46.9 °F /  8.3 °C 30.03in /  1016.8hPa ESE 4.0mph /  6.4km/h 5.0mph /  8km/h 83% 0.00in /  0mm meteobridge W/m2
13:54 52.0 °F /  11.1 °C 46.9 °F /  8.3 °C 30.03in /  1016.8hPa SSE 6.0mph /  9.7km/h 6.0mph /  9.7km/h 83% 0.00in /  0mm meteobridge W/m2
13:59 52.0 °F /  11.1 °C 46.9 °F /  8.3 °C 30.02in /  1016.5hPa Calm   2.0mph /  3.2km/h 83% 0.00in /  0mm meteobridge W/m2
14:04 51.8 °F /  11 °C 46.8 °F /  8.2 °C 30.01in /  1016.1hPa Calm   5.0mph /  8km/h 83% 0.00in /  0mm meteobridge W/m2
14:09 51.6 °F /  10.9 °C 46.9 °F /  8.3 °C 30.01in /  1016.1hPa SE 0.9mph /  1.4km/h 1.0mph /  1.6km/h 84% 0.00in /  0mm meteobridge W/m2
14:14 51.6 °F /  10.9 °C 47.3 °F /  8.5 °C 30.01in /  1016.1hPa East 4.0mph /  6.4km/h 4.0mph /  6.4km/h 85% 0.00in /  0mm meteobridge W/m2
14:19 51.4 °F /  10.8 °C 47.5 °F /  8.6 °C 30.00in /  1015.8hPa East 0.9mph /  1.4km/h 2.0mph /  3.2km/h 86% 0.00in /  0mm meteobridge W/m2
14:24 51.3 °F /  10.7 °C 47.5 °F /  8.6 °C 30.00in /  1015.8hPa SE 2.0mph /  3.2km/h 2.0mph /  3.2km/h 87% 0.00in /  0mm meteobridge W/m2
14:29 51.4 °F /  10.8 °C 47.5 °F /  8.6 °C 29.99in /  1015.5hPa ESE 4.0mph /  6.4km/h 6.0mph /  9.7km/h 86% 0.00in /  0mm meteobridge W/m2
14:34 51.4 °F /  10.8 °C 47.1 °F /  8.4 °C 29.99in /  1015.5hPa SE 8.9mph /  14.3km/h 9.0mph /  14.5km/h 85% 0.00in /  0mm meteobridge W/m2
14:39 51.3 °F /  10.7 °C 46.9 °F /  8.3 °C 29.98in /  1015.1hPa Calm   1.0mph /  1.6km/h 85% 0.00in /  0mm meteobridge W/m2
14:44 50.7 °F /  10.4 °C 46.8 °F /  8.2 °C 29.98in /  1015.1hPa Calm     86% 0.00in /  0mm meteobridge W/m2
14:49 50.4 °F /  10.2 °C 46.4 °F /  8 °C 29.98in /  1015.1hPa Calm     86% 0.00in /  0mm meteobridge W/m2
14:54 50.2 °F /  10.1 °C 46.4 °F /  8 °C 29.97in /  1014.8hPa ENE 0.9mph /  1.4km/h 5.0mph /  8km/h 87% 0.00in /  0mm meteobridge W/m2
14:59 50.0 °F /  10 °C 46.2 °F /  7.9 °C 29.97in /  1014.8hPa Calm   7.0mph /  11.3km/h 87% 0.00in /  0mm meteobridge W/m2
15:04 50.0 °F /  10 °C 46.2 °F /  7.9 °C 29.96in /  1014.4hPa SE 4.9mph /  7.9km/h 5.0mph /  8km/h 87% 0.00in /  0mm meteobridge W/m2
15:09 50.2 °F /  10.1 °C 46.4 °F /  8 °C 29.96in /  1014.4hPa ESE 2.0mph /  3.2km/h 6.0mph /  9.7km/h 87% 0.00in /  0mm meteobridge W/m2
15:14 50.4 °F /  10.2 °C 46.6 °F /  8.1 °C 29.96in /  1014.4hPa Calm   6.0mph /  9.7km/h 87% 0.00in /  0mm meteobridge W/m2
15:19 50.4 °F /  10.2 °C 46.6 °F /  8.1 °C 29.95in /  1014.1hPa Calm   5.0mph /  8km/h 87% 0.00in /  0mm meteobridge W/m2
15:24 50.4 °F /  10.2 °C 46.4 °F /  8 °C 29.95in /  1014.1hPa SE 2.0mph /  3.2km/h 6.0mph /  9.7km/h 86% 0.00in /  0mm meteobridge W/m2
15:29 50.5 °F /  10.3 °C 46.6 °F /  8.1 °C 29.94in /  1013.8hPa Calm     86% 0.00in /  0mm meteobridge W/m2
15:34 50.5 °F /  10.3 °C 46.6 °F /  8.1 °C 29.94in /  1013.8hPa ESE 0.9mph /  1.4km/h 2.0mph /  3.2km/h 86% 0.00in /  0mm meteobridge W/m2
15:39 50.5 °F /  10.3 °C 46.6 °F /  8.1 °C 29.94in /  1013.8hPa Calm     86% 0.00in /  0mm meteobridge W/m2
15:44 50.5 °F /  10.3 °C 46.6 °F /  8.1 °C 29.93in /  1013.4hPa Calm     86% 0.00in /  0mm meteobridge W/m2
15:49 50.4 °F /  10.2 °C 46.4 °F /  8 °C 29.93in /  1013.4hPa Calm     86% 0.00in /  0mm meteobridge W/m2
15:54 50.2 °F /  10.1 °C 46.2 °F /  7.9 °C 29.92in /  1013.1hPa Calm     86% 0.00in /  0mm meteobridge W/m2
15:59 50.2 °F /  10.1 °C 46.4 °F /  8 °C 29.93in /  1013.4hPa Calm     87% 0.00in /  0mm meteobridge W/m2
16:04 50.0 °F /  10 °C 46.2 °F /  7.9 °C 29.92in /  1013.1hPa Calm     87% 0.00in /  0mm meteobridge W/m2
16:09 50.0 °F /  10 °C 46.2 °F /  7.9 °C 29.92in /  1013.1hPa Calm     87% 0.00in /  0mm meteobridge W/m2
16:14 50.2 °F /  10.1 °C 46.4 °F /  8 °C 29.91in /  1012.8hPa Calm     87% 0.00in /  0mm meteobridge W/m2
16:19 50.4 °F /  10.2 °C 46.4 °F /  8 °C 29.90in /  1012.4hPa Calm     86% 0.00in /  0mm meteobridge W/m2
16:24 50.5 °F /  10.3 °C 46.6 °F /  8.1 °C 29.90in /  1012.4hPa Calm     86% 0.00in /  0mm meteobridge W/m2
16:29 50.7 °F /  10.4 °C 46.8 °F /  8.2 °C 29.90in /  1012.4hPa Calm     86% 0.00in /  0mm meteobridge W/m2
16:34 50.7 °F /  10.4 °C 46.4 °F /  8 °C 29.90in /  1012.4hPa Calm     85% 0.00in /  0mm meteobridge W/m2
16:39 50.7 °F /  10.4 °C 46.4 °F /  8 °C 29.90in /  1012.4hPa Calm     85% 0.00in /  0mm meteobridge W/m2
16:44 50.7 °F /  10.4 °C 46.4 °F /  8 °C 29.90in /  1012.4hPa Calm     85% 0.00in /  0mm meteobridge W/m2
16:49 50.7 °F /  10.4 °C 46.4 °F /  8 °C 29.90in /  1012.4hPa Calm     85% 0.00in /  0mm meteobridge W/m2
16:54 50.9 °F /  10.5 °C 46.6 °F /  8.1 °C 29.89in /  1012.1hPa Calm     85% 0.00in /  0mm meteobridge W/m2
16:59 50.9 °F /  10.5 °C 46.6 °F /  8.1 °C 29.89in /  1012.1hPa Calm     85% 0.00in /  0mm meteobridge W/m2
17:04 50.7 °F /  10.4 °C 46.4 °F /  8 °C 29.88in /  1011.7hPa Calm     85% 0.00in /  0mm meteobridge W/m2
17:09 50.7 °F /  10.4 °C 46.8 °F /  8.2 °C 29.88in /  1011.7hPa Calm     86% 0.00in /  0mm meteobridge W/m2
17:14 50.5 °F /  10.3 °C 46.8 °F /  8.2 °C 29.88in /  1011.7hPa Calm     87% 0.00in /  0mm meteobridge W/m2
17:19 50.2 °F /  10.1 °C 47.1 °F /  8.4 °C 29.87in /  1011.4hPa Calm     89% 0.00in /  0mm meteobridge W/m2
17:24 49.8 °F /  9.9 °C 46.9 °F /  8.3 °C 29.85in /  1010.7hPa Calm     90% 0.00in /  0mm meteobridge W/m2
17:29 49.6 °F /  9.8 °C 46.8 °F /  8.2 °C 29.85in /  1010.7hPa Calm     90% 0.00in /  0mm meteobridge W/m2
17:34 49.6 °F /  9.8 °C 47.1 °F /  8.4 °C 29.84in /  1010.4hPa Calm     91% 0.00in /  0mm meteobridge W/m2
17:39 49.6 °F /  9.8 °C 47.1 °F /  8.4 °C 29.85in /  1010.7hPa Calm     91% 0.00in /  0mm meteobridge W/m2
17:44 49.8 °F /  9.9 °C 47.3 °F /  8.5 °C 29.85in /  1010.7hPa Calm     91% 0.00in /  0mm meteobridge W/m2
17:49 50.2 °F /  10.1 °C 47.7 °F /  8.7 °C 29.84in /  1010.4hPa Calm     91% 0.00in /  0mm meteobridge W/m2
17:54 50.4 °F /  10.2 °C 47.5 °F /  8.6 °C 29.84in /  1010.4hPa Calm     90% 0.00in /  0mm meteobridge W/m2
17:59 50.5 °F /  10.3 °C 47.7 °F /  8.7 °C 29.83in /  1010hPa Calm     90% 0.00in /  0mm meteobridge W/m2
18:04 50.7 °F /  10.4 °C 47.7 °F /  8.7 °C 29.83in /  1010hPa Calm     89% 0.00in /  0mm meteobridge W/m2
18:09 51.1 °F /  10.6 °C 48.0 °F /  8.9 °C 29.83in /  1010hPa Calm     89% 0.00in /  0mm meteobridge W/m2
18:14 51.1 °F /  10.6 °C 48.0 °F /  8.9 °C 29.83in /  1010hPa Calm     89% 0.01in /  0.25mm meteobridge W/m2
18:19 50.7 °F /  10.4 °C 47.8 °F /  8.8 °C 29.83in /  1010hPa Calm     90% 0.01in /  0.25mm meteobridge W/m2
18:24 50.5 °F /  10.3 °C 48.4 °F /  9.1 °C 29.83in /  1010hPa Calm     92% 0.02in /  0.51mm meteobridge W/m2
18:29 50.4 °F /  10.2 °C 48.4 °F /  9.1 °C 29.83in /  1010hPa Calm     93% 0.03in /  0.76mm meteobridge W/m2
18:34 50.2 °F /  10.1 °C 48.2 °F /  9 °C 29.82in /  1009.7hPa Calm     93% 0.05in /  1.27mm meteobridge W/m2
18:39 50.2 °F /  10.1 °C 48.6 °F /  9.2 °C 29.82in /  1009.7hPa Calm     94% 0.07in /  1.78mm meteobridge W/m2
18:44 50.0 °F /  10 °C 48.4 °F /  9.1 °C 29.82in /  1009.7hPa Calm     94% 0.08in /  2.03mm meteobridge W/m2
18:49 50.0 °F /  10 °C 48.4 °F /  9.1 °C 29.81in /  1009.4hPa Calm     94% 0.09in /  2.29mm meteobridge W/m2
18:54 50.0 °F /  10 °C 48.4 °F /  9.1 °C 29.80in /  1009hPa Calm     94% 0.10in /  2.54mm meteobridge W/m2
18:59 50.2 °F /  10.1 °C 48.6 °F /  9.2 °C 29.80in /  1009hPa Calm     94% 0.11in /  2.79mm meteobridge W/m2
19:04 50.2 °F /  10.1 °C 48.6 °F /  9.2 °C 29.80in /  1009hPa Calm     94% 0.12in /  3.05mm meteobridge W/m2
19:09 50.2 °F /  10.1 °C 48.6 °F /  9.2 °C 29.81in /  1009.4hPa Calm     94% 0.14in /  3.56mm meteobridge W/m2
19:14 50.2 °F /  10.1 °C 48.7 °F /  9.3 °C 29.82in /  1009.7hPa Calm     95% 0.14in /  3.56mm meteobridge W/m2
19:19 50.2 °F /  10.1 °C 48.7 °F /  9.3 °C 29.83in /  1010hPa Calm     95% 0.16in /  4.06mm meteobridge W/m2
19:24 49.8 °F /  9.9 °C 48.7 °F /  9.3 °C 29.85in /  1010.7hPa Calm     96% 0.17in /  4.32mm meteobridge W/m2
19:29 50.0 °F /  10 °C 48.9 °F /  9.4 °C 29.87in /  1011.4hPa Calm     96% 0.20in /  5.08mm meteobridge W/m2
19:34 50.0 °F /  10 °C 48.9 °F /  9.4 °C 29.88in /  1011.7hPa Calm     96% 0.29in /  7.37mm meteobridge W/m2
19:39 50.4 °F /  10.2 °C 49.5 °F /  9.7 °C 29.88in /  1011.7hPa Calm     97% 0.31in /  7.87mm meteobridge W/m2
19:44 50.5 °F /  10.3 °C 49.6 °F /  9.8 °C 29.88in /  1011.7hPa Calm     97% 0.34in /  8.64mm meteobridge W/m2
19:49 50.7 °F /  10.4 °C 49.8 °F /  9.9 °C 29.87in /  1011.4hPa Calm     97% 0.37in /  9.4mm meteobridge W/m2
19:54 51.1 °F /  10.6 °C 50.2 °F /  10.1 °C 29.86in /  1011.1hPa Calm     97% 0.39in /  9.91mm meteobridge W/m2
19:59 51.1 °F /  10.6 °C 50.2 °F /  10.1 °C 29.85in /  1010.7hPa Calm     97% 0.41in /  10.41mm meteobridge W/m2
20:04 51.1 °F /  10.6 °C 50.2 °F /  10.1 °C 29.85in /  1010.7hPa Calm     97% 0.41in /  10.41mm meteobridge W/m2
20:09 51.1 °F /  10.6 °C 50.2 °F /  10.1 °C 29.84in /  1010.4hPa Calm     97% 0.42in /  10.67mm meteobridge W/m2
20:14 50.9 °F /  10.5 °C 50.0 °F /  10 °C 29.84in /  1010.4hPa Calm     97% 0.42in /  10.67mm meteobridge W/m2
20:19 50.9 °F /  10.5 °C 50.0 °F /  10 °C 29.83in /  1010hPa Calm     97% 0.41in /  10.41mm meteobridge W/m2
20:24 50.7 °F /  10.4 °C 49.8 °F /  9.9 °C 29.84in /  1010.4hPa Calm     97% 0.42in /  10.67mm meteobridge W/m2
20:29 50.5 °F /  10.3 °C 49.6 °F /  9.8 °C 29.84in /  1010.4hPa Calm     97% 0.39in /  9.91mm meteobridge W/m2
20:34 50.5 °F /  10.3 °C 49.6 °F /  9.8 °C 29.83in /  1010hPa Calm     97% 0.35in /  8.89mm meteobridge W/m2
20:39 50.5 °F /  10.3 °C 49.6 °F /  9.8 °C 29.83in /  1010hPa Calm     97% 0.33in /  8.38mm meteobridge W/m2
20:43 50.5 °F /  10.3 °C 49.6 °F /  9.8 °C 29.83in /  1010hPa Calm     97% 0.32in /  8.13mm meteobridge W/m2
20:49 50.5 °F /  10.3 °C 49.6 °F /  9.8 °C 29.83in /  1010hPa Calm     97% 0.30in /  7.62mm meteobridge W/m2
20:54 50.4 °F /  10.2 °C 49.5 °F /  9.7 °C 29.83in /  1010hPa Calm     97% 0.29in /  7.37mm meteobridge W/m2
20:59 50.4 °F /  10.2 °C 49.5 °F /  9.7 °C 29.83in /  1010hPa Calm     97% 0.29in /  7.37mm meteobridge W/m2
21:04 50.4 °F /  10.2 °C 49.5 °F /  9.7 °C 29.82in /  1009.7hPa Calm     97% 0.31in /  7.87mm meteobridge W/m2
21:09 50.2 °F /  10.1 °C 49.3 °F /  9.6 °C 29.82in /  1009.7hPa Calm     97% 0.31in /  7.87mm meteobridge W/m2
21:14 50.2 °F /  10.1 °C 49.3 °F /  9.6 °C 29.81in /  1009.4hPa Calm     97% 0.30in /  7.62mm meteobridge W/m2
21:19 50.0 °F /  10 °C 49.1 °F /  9.5 °C 29.81in /  1009.4hPa Calm     97% 0.30in /  7.62mm meteobridge W/m2
21:24 50.2 °F /  10.1 °C 49.6 °F /  9.8 °C 29.81in /  1009.4hPa Calm     98% 0.29in /  7.37mm meteobridge W/m2
21:29 50.2 °F /  10.1 °C 49.6 °F /  9.8 °C 29.81in /  1009.4hPa Calm     98% 0.28in /  7.11mm meteobridge W/m2
21:34 50.2 °F /  10.1 °C 49.6 °F /  9.8 °C 29.80in /  1009hPa Calm     98% 0.25in /  6.35mm meteobridge W/m2
21:39 50.4 °F /  10.2 °C 49.8 °F /  9.9 °C 29.79in /  1008.7hPa Calm     98% 0.23in /  5.84mm meteobridge W/m2
21:44 50.4 °F /  10.2 °C 49.8 °F /  9.9 °C 29.79in /  1008.7hPa Calm     98% 0.23in /  5.84mm meteobridge W/m2
21:49 50.4 °F /  10.2 °C 49.8 °F /  9.9 °C 29.79in /  1008.7hPa Calm     98% 0.23in /  5.84mm meteobridge W/m2
21:54 50.4 °F /  10.2 °C 49.8 °F /  9.9 °C 29.78in /  1008.4hPa Calm     98% 0.23in /  5.84mm meteobridge W/m2
21:59 50.4 °F /  10.2 °C 49.8 °F /  9.9 °C 29.78in /  1008.4hPa Calm     98% 0.23in /  5.84mm meteobridge W/m2
22:04 50.4 °F /  10.2 °C 49.8 °F /  9.9 °C 29.78in /  1008.4hPa Calm     98% 0.21in /  5.33mm meteobridge W/m2
22:09 50.4 °F /  10.2 °C 49.8 °F /  9.9 °C 29.77in /  1008hPa Calm     98% 0.21in /  5.33mm meteobridge W/m2
22:14 50.4 °F /  10.2 °C 49.8 °F /  9.9 °C 29.77in /  1008hPa Calm     98% 0.21in /  5.33mm meteobridge W/m2
22:19 50.4 °F /  10.2 °C 49.8 °F /  9.9 °C 29.78in /  1008.4hPa Calm     98% 0.20in /  5.08mm meteobridge W/m2
22:24 50.4 °F /  10.2 °C 49.8 °F /  9.9 °C 29.77in /  1008hPa Calm     98% 0.22in /  5.59mm meteobridge W/m2
22:29 50.4 °F /  10.2 °C 49.8 °F /  9.9 °C 29.75in /  1007.3hPa Calm     98% 0.21in /  5.33mm meteobridge W/m2
22:34 50.5 °F /  10.3 °C 50.0 °F /  10 °C 29.75in /  1007.3hPa Calm     98% 0.20in /  5.08mm meteobridge W/m2
22:39 50.4 °F /  10.2 °C 49.8 °F /  9.9 °C 29.75in /  1007.3hPa Calm     98% 0.19in /  4.83mm meteobridge W/m2
22:44 50.2 °F /  10.1 °C 49.3 °F /  9.6 °C 29.76in /  1007.7hPa Calm     97% 0.19in /  4.83mm meteobridge W/m2
22:49 50.2 °F /  10.1 °C 49.6 °F /  9.8 °C 29.75in /  1007.3hPa Calm     98% 0.17in /  4.32mm meteobridge W/m2
22:54 50.2 °F /  10.1 °C 49.6 °F /  9.8 °C 29.76in /  1007.7hPa Calm     98% 0.16in /  4.06mm meteobridge W/m2
22:59 50.4 °F /  10.2 °C 49.8 °F /  9.9 °C 29.76in /  1007.7hPa Calm     98% 0.14in /  3.56mm meteobridge W/m2
23:04 50.5 °F /  10.3 °C 50.0 °F /  10 °C 29.76in /  1007.7hPa Calm     98% 0.13in /  3.3mm meteobridge W/m2
23:09 50.5 °F /  10.3 °C 50.0 °F /  10 °C 29.76in /  1007.7hPa Calm     98% 0.13in /  3.3mm meteobridge W/m2
23:14 50.5 °F /  10.3 °C 50.0 °F /  10 °C 29.76in /  1007.7hPa Calm     98% 0.13in /  3.3mm meteobridge W/m2
23:19 50.5 °F /  10.3 °C 50.0 °F /  10 °C 29.77in /  1008hPa Calm     98% 0.14in /  3.56mm meteobridge W/m2
23:24 50.5 °F /  10.3 °C 50.0 °F /  10 °C 29.77in /  1008hPa Calm     98% 0.15in /  3.81mm meteobridge W/m2
23:29 50.5 °F /  10.3 °C 50.0 °F /  10 °C 29.78in /  1008.4hPa Calm     98% 0.14in /  3.56mm meteobridge W/m2
23:34 50.5 °F /  10.3 °C 50.0 °F /  10 °C 29.78in /  1008.4hPa Calm     98% 0.15in /  3.81mm meteobridge W/m2
23:39 50.5 °F /  10.3 °C 50.0 °F /  10 °C 29.78in /  1008.4hPa Calm     98% 0.16in /  4.06mm meteobridge W/m2
23:44 50.5 °F /  10.3 °C 50.0 °F /  10 °C 29.78in /  1008.4hPa Calm     98% 0.16in /  4.06mm meteobridge W/m2
23:49 50.4 °F /  10.2 °C 49.8 °F /  9.9 °C 29.77in /  1008hPa Calm     98% 0.17in /  4.32mm meteobridge W/m2
23:54 50.4 °F /  10.2 °C 49.8 °F /  9.9 °C 29.77in /  1008hPa Calm     98% 0.17in /  4.32mm meteobridge W/m2
23:59 50.4 °F /  10.2 °C 49.8 °F /  9.9 °C 29.76in /  1007.7hPa Calm     98% 0.17in /  4.32mm meteobridge W/m2
EllijayWeather
Compliments of Weather Underground - 2.5 mb